sensor_id;sensor_type;location;lat;lon;timestamp;P1;durP1;ratioP1;P2;durP2;ratioP2
23617;SDS011;18207;32.078;34.818;2024-03-06T00:00:12;3.97;;;3.10;;
23617;SDS011;18207;32.078;34.818;2024-03-06T00:02:43;3.63;;;2.90;;
23617;SDS011;18207;32.078;34.818;2024-03-06T00:05:13;4.65;;;3.20;;
23617;SDS011;18207;32.078;34.818;2024-03-06T00:07:43;3.55;;;3.15;;
23617;SDS011;18207;32.078;34.818;2024-03-06T00:10:13;4.65;;;3.28;;
23617;SDS011;18207;32.078;34.818;2024-03-06T00:12:44;5.72;;;3.65;;
23617;SDS011;18207;32.078;34.818;2024-03-06T00:15:14;4.15;;;3.38;;
23617;SDS011;18207;32.078;34.818;2024-03-06T00:17:44;4.75;;;3.35;;
23617;SDS011;18207;32.078;34.818;2024-03-06T00:20:14;4.65;;;3.45;;
23617;SDS011;18207;32.078;34.818;2024-03-06T00:22:44;4.80;;;3.65;;
23617;SDS011;18207;32.078;34.818;2024-03-06T00:25:14;4.00;;;3.50;;
23617;SDS011;18207;32.078;34.818;2024-03-06T00:27:45;5.45;;;4.07;;
23617;SDS011;18207;32.078;34.818;2024-03-06T00:30:15;5.35;;;3.53;;
23617;SDS011;18207;32.078;34.818;2024-03-06T00:32:45;4.05;;;3.40;;
23617;SDS011;18207;32.078;34.818;2024-03-06T00:35:16;3.90;;;3.17;;
23617;SDS011;18207;32.078;34.818;2024-03-06T00:37:46;3.53;;;3.22;;
23617;SDS011;18207;32.078;34.818;2024-03-06T00:40:16;3.50;;;3.20;;
23617;SDS011;18207;32.078;34.818;2024-03-06T00:42:47;4.18;;;3.42;;
23617;SDS011;18207;32.078;34.818;2024-03-06T00:45:17;4.75;;;3.65;;
23617;SDS011;18207;32.078;34.818;2024-03-06T00:47:47;3.90;;;3.35;;
23617;SDS011;18207;32.078;34.818;2024-03-06T00:50:17;4.30;;;3.55;;
23617;SDS011;18207;32.078;34.818;2024-03-06T00:52:58;4.57;;;3.53;;
23617;SDS011;18207;32.078;34.818;2024-03-06T00:55:28;4.75;;;3.47;;
23617;SDS011;18207;32.078;34.818;2024-03-06T00:58:00;3.78;;;3.40;;
23617;SDS011;18207;32.078;34.818;2024-03-06T01:00:33;4.78;;;3.17;;
23617;SDS011;18207;32.078;34.818;2024-03-06T01:03:06;3.92;;;3.20;;
23617;SDS011;18207;32.078;34.818;2024-03-06T01:05:36;3.55;;;3.25;;
23617;SDS011;18207;32.078;34.818;2024-03-06T01:08:06;3.50;;;2.78;;
23617;SDS011;18207;32.078;34.818;2024-03-06T01:10:36;3.47;;;3.17;;
23617;SDS011;18207;32.078;34.818;2024-03-06T01:13:07;3.53;;;3.10;;
23617;SDS011;18207;32.078;34.818;2024-03-06T01:15:38;4.40;;;3.10;;
23617;SDS011;18207;32.078;34.818;2024-03-06T01:18:08;3.30;;;3.00;;
23617;SDS011;18207;32.078;34.818;2024-03-06T01:20:38;3.83;;;3.13;;
23617;SDS011;18207;32.078;34.818;2024-03-06T01:23:08;4.57;;;3.20;;
23617;SDS011;18207;32.078;34.818;2024-03-06T01:25:46;4.00;;;3.08;;
23617;SDS011;18207;32.078;34.818;2024-03-06T01:28:18;4.93;;;3.00;;
23617;SDS011;18207;32.078;34.818;2024-03-06T01:30:48;4.10;;;3.10;;
23617;SDS011;18207;32.078;34.818;2024-03-06T01:33:18;4.18;;;3.40;;
23617;SDS011;18207;32.078;34.818;2024-03-06T01:35:48;3.50;;;2.97;;
23617;SDS011;18207;32.078;34.818;2024-03-06T01:41:03;4.22;;;3.08;;
23617;SDS011;18207;32.078;34.818;2024-03-06T01:43:38;4.05;;;2.90;;
23617;SDS011;18207;32.078;34.818;2024-03-06T01:46:17;4.72;;;3.00;;
23617;SDS011;18207;32.078;34.818;2024-03-06T01:48:47;3.78;;;2.83;;
23617;SDS011;18207;32.078;34.818;2024-03-06T01:51:17;3.15;;;2.70;;
23617;SDS011;18207;32.078;34.818;2024-03-06T01:53:47;3.22;;;2.92;;
23617;SDS011;18207;32.078;34.818;2024-03-06T01:56:20;3.17;;;2.58;;
23617;SDS011;18207;32.078;34.818;2024-03-06T01:58:52;3.22;;;2.72;;
23617;SDS011;18207;32.078;34.818;2024-03-06T02:01:24;3.67;;;2.38;;
23617;SDS011;18207;32.078;34.818;2024-03-06T02:03:54;3.72;;;2.72;;
23617;SDS011;18207;32.078;34.818;2024-03-06T02:06:25;3.38;;;2.45;;
23617;SDS011;18207;32.078;34.818;2024-03-06T02:08:55;2.70;;;2.33;;
23617;SDS011;18207;32.078;34.818;2024-03-06T02:11:28;3.85;;;2.42;;
23617;SDS011;18207;32.078;34.818;2024-03-06T02:14:00;2.30;;;2.10;;
23617;SDS011;18207;32.078;34.818;2024-03-06T02:16:31;2.55;;;2.20;;
23617;SDS011;18207;32.078;34.818;2024-03-06T02:19:01;2.88;;;2.25;;
23617;SDS011;18207;32.078;34.818;2024-03-06T02:21:33;2.20;;;2.00;;
23617;SDS011;18207;32.078;34.818;2024-03-06T02:24:03;3.10;;;2.35;;
23617;SDS011;18207;32.078;34.818;2024-03-06T02:26:35;1.92;;;1.83;;
23617;SDS011;18207;32.078;34.818;2024-03-06T02:29:06;2.88;;;2.03;;
23617;SDS011;18207;32.078;34.818;2024-03-06T02:31:36;2.60;;;1.95;;
23617;SDS011;18207;32.078;34.818;2024-03-06T02:34:07;2.08;;;1.88;;
23617;SDS011;18207;32.078;34.818;2024-03-06T02:36:38;2.22;;;1.88;;
23617;SDS011;18207;32.078;34.818;2024-03-06T02:39:08;2.00;;;1.80;;
23617;SDS011;18207;32.078;34.818;2024-03-06T02:41:38;3.95;;;1.73;;
23617;SDS011;18207;32.078;34.818;2024-03-06T02:44:07;1.60;;;1.50;;
23617;SDS011;18207;32.078;34.818;2024-03-06T02:46:38;1.85;;;1.75;;
23617;SDS011;18207;32.078;34.818;2024-03-06T02:49:11;2.78;;;1.80;;
23617;SDS011;18207;32.078;34.818;2024-03-06T02:51:43;1.70;;;1.60;;
23617;SDS011;18207;32.078;34.818;2024-03-06T02:54:22;2.22;;;1.83;;
23617;SDS011;18207;32.078;34.818;2024-03-06T02:56:52;1.98;;;1.80;;
23617;SDS011;18207;32.078;34.818;2024-03-06T02:59:22;1.73;;;1.63;;
23617;SDS011;18207;32.078;34.818;2024-03-06T03:01:54;1.77;;;1.50;;
23617;SDS011;18207;32.078;34.818;2024-03-06T03:04:27;1.77;;;1.67;;
23617;SDS011;18207;32.078;34.818;2024-03-06T03:07:00;1.95;;;1.55;;
23617;SDS011;18207;32.078;34.818;2024-03-06T03:09:29;2.25;;;1.95;;
23617;SDS011;18207;32.078;34.818;2024-03-06T03:12:08;2.22;;;1.88;;
23617;SDS011;18207;32.078;34.818;2024-03-06T03:14:40;2.30;;;2.05;;
23617;SDS011;18207;32.078;34.818;2024-03-06T03:17:10;2.10;;;1.90;;
23617;SDS011;18207;32.078;34.818;2024-03-06T03:19:42;2.53;;;1.77;;
23617;SDS011;18207;32.078;34.818;2024-03-06T03:22:17;1.80;;;1.70;;
23617;SDS011;18207;32.078;34.818;2024-03-06T03:24:47;1.83;;;1.70;;
23617;SDS011;18207;32.078;34.818;2024-03-06T03:27:20;2.10;;;1.73;;
23617;SDS011;18207;32.078;34.818;2024-03-06T03:29:50;2.00;;;1.80;;
23617;SDS011;18207;32.078;34.818;2024-03-06T03:32:20;1.67;;;1.58;;
23617;SDS011;18207;32.078;34.818;2024-03-06T03:34:53;1.67;;;1.55;;
23617;SDS011;18207;32.078;34.818;2024-03-06T03:37:24;1.92;;;1.60;;
23617;SDS011;18207;32.078;34.818;2024-03-06T03:39:55;1.70;;;1.60;;
23617;SDS011;18207;32.078;34.818;2024-03-06T03:42:25;1.95;;;1.75;;
23617;SDS011;18207;32.078;34.818;2024-03-06T03:44:57;2.30;;;1.70;;
23617;SDS011;18207;32.078;34.818;2024-03-06T03:47:30;1.50;;;1.40;;
23617;SDS011;18207;32.078;34.818;2024-03-06T03:50:00;1.60;;;1.40;;
23617;SDS011;18207;32.078;34.818;2024-03-06T03:52:38;2.10;;;1.60;;
23617;SDS011;18207;32.078;34.818;2024-03-06T03:55:09;1.70;;;1.60;;
23617;SDS011;18207;32.078;34.818;2024-03-06T03:57:42;1.70;;;1.60;;
23617;SDS011;18207;32.078;34.818;2024-03-06T04:00:12;1.80;;;1.70;;
23617;SDS011;18207;32.078;34.818;2024-03-06T04:02:43;2.30;;;1.63;;
23617;SDS011;18207;32.078;34.818;2024-03-06T04:05:13;1.70;;;1.60;;
23617;SDS011;18207;32.078;34.818;2024-03-06T04:07:45;1.60;;;1.50;;
23617;SDS011;18207;32.078;34.818;2024-03-06T04:10:15;1.63;;;1.52;;
23617;SDS011;18207;32.078;34.818;2024-03-06T04:12:45;2.28;;;1.70;;
23617;SDS011;18207;32.078;34.818;2024-03-06T04:15:15;1.58;;;1.40;;
23617;SDS011;18207;32.078;34.818;2024-03-06T04:17:46;1.52;;;1.42;;
23617;SDS011;18207;32.078;34.818;2024-03-06T04:20:16;2.13;;;1.65;;
23617;SDS011;18207;32.078;34.818;2024-03-06T04:22:48;1.80;;;1.70;;
23617;SDS011;18207;32.078;34.818;2024-03-06T04:25:18;1.80;;;1.70;;
23617;SDS011;18207;32.078;34.818;2024-03-06T04:27:50;1.95;;;1.70;;
23617;SDS011;18207;32.078;34.818;2024-03-06T04:30:21;1.70;;;1.60;;
23617;SDS011;18207;32.078;34.818;2024-03-06T04:32:55;1.83;;;1.60;;
23617;SDS011;18207;32.078;34.818;2024-03-06T04:35:25;2.15;;;1.70;;
23617;SDS011;18207;32.078;34.818;2024-03-06T04:38:06;2.47;;;1.95;;
23617;SDS011;18207;32.078;34.818;2024-03-06T04:40:36;2.15;;;1.88;;
23617;SDS011;18207;32.078;34.818;2024-03-06T04:43:06;2.22;;;1.80;;
23617;SDS011;18207;32.078;34.818;2024-03-06T04:45:37;2.22;;;1.85;;
23617;SDS011;18207;32.078;34.818;2024-03-06T04:48:07;1.95;;;1.60;;
23617;SDS011;18207;32.078;34.818;2024-03-06T04:50:37;1.95;;;1.67;;
23617;SDS011;18207;32.078;34.818;2024-03-06T04:53:09;1.77;;;1.65;;
23617;SDS011;18207;32.078;34.818;2024-03-06T04:55:39;1.80;;;1.52;;
23617;SDS011;18207;32.078;34.818;2024-03-06T04:58:09;1.95;;;1.60;;
23617;SDS011;18207;32.078;34.818;2024-03-06T05:00:39;2.28;;;1.70;;
23617;SDS011;18207;32.078;34.818;2024-03-06T05:03:12;1.70;;;1.60;;
23617;SDS011;18207;32.078;34.818;2024-03-06T05:05:59;1.85;;;1.60;;
23617;SDS011;18207;32.078;34.818;2024-03-06T05:08:48;2.00;;;1.80;;
23617;SDS011;18207;32.078;34.818;2024-03-06T05:11:38;1.80;;;1.65;;
23617;SDS011;18207;32.078;34.818;2024-03-06T05:14:25;3.45;;;2.00;;
23617;SDS011;18207;32.078;34.818;2024-03-06T05:17:14;1.58;;;1.48;;
23617;SDS011;18207;32.078;34.818;2024-03-06T05:20:01;1.40;;;1.30;;
23617;SDS011;18207;32.078;34.818;2024-03-06T05:22:49;2.08;;;1.73;;
23617;SDS011;18207;32.078;34.818;2024-03-06T05:25:37;1.92;;;1.50;;
23617;SDS011;18207;32.078;34.818;2024-03-06T05:28:24;1.63;;;1.52;;
23617;SDS011;18207;32.078;34.818;2024-03-06T05:31:18;2.47;;;1.48;;
23617;SDS011;18207;32.078;34.818;2024-03-06T05:34:07;2.25;;;1.45;;
23617;SDS011;18207;32.078;34.818;2024-03-06T05:36:54;1.48;;;1.38;;
23617;SDS011;18207;32.078;34.818;2024-03-06T05:39:41;1.95;;;1.50;;
23617;SDS011;18207;32.078;34.818;2024-03-06T05:42:30;2.38;;;1.75;;
23617;SDS011;18207;32.078;34.818;2024-03-06T05:45:17;3.08;;;1.50;;
23617;SDS011;18207;32.078;34.818;2024-03-06T05:48:04;1.77;;;1.67;;
23617;SDS011;18207;32.078;34.818;2024-03-06T05:50:52;2.72;;;1.85;;
23617;SDS011;18207;32.078;34.818;2024-03-06T05:53:40;2.03;;;1.63;;
23617;SDS011;18207;32.078;34.818;2024-03-06T05:56:28;2.70;;;2.00;;
23617;SDS011;18207;32.078;34.818;2024-03-06T05:59:17;2.35;;;2.05;;
23617;SDS011;18207;32.078;34.818;2024-03-06T06:01:50;2.67;;;2.03;;
23617;SDS011;18207;32.078;34.818;2024-03-06T06:04:22;1.80;;;1.70;;
23617;SDS011;18207;32.078;34.818;2024-03-06T06:06:52;3.05;;;1.98;;
23617;SDS011;18207;32.078;34.818;2024-03-06T06:09:22;3.30;;;1.90;;
23617;SDS011;18207;32.078;34.818;2024-03-06T06:11:52;2.45;;;1.92;;
23617;SDS011;18207;32.078;34.818;2024-03-06T06:14:27;2.20;;;1.83;;
23617;SDS011;18207;32.078;34.818;2024-03-06T06:16:57;1.88;;;1.58;;
23617;SDS011;18207;32.078;34.818;2024-03-06T06:19:27;1.85;;;1.60;;
23617;SDS011;18207;32.078;34.818;2024-03-06T06:21:57;3.20;;;1.92;;
23617;SDS011;18207;32.078;34.818;2024-03-06T06:24:27;2.13;;;1.80;;
23617;SDS011;18207;32.078;34.818;2024-03-06T06:26:57;3.22;;;2.08;;
23617;SDS011;18207;32.078;34.818;2024-03-06T06:29:32;3.70;;;2.10;;
23617;SDS011;18207;32.078;34.818;2024-03-06T06:32:02;2.03;;;1.80;;
23617;SDS011;18207;32.078;34.818;2024-03-06T06:34:32;2.17;;;1.80;;
23617;SDS011;18207;32.078;34.818;2024-03-06T06:37:02;1.75;;;1.65;;
23617;SDS011;18207;32.078;34.818;2024-03-06T06:39:32;2.10;;;1.90;;
23617;SDS011;18207;32.078;34.818;2024-03-06T06:42:02;2.92;;;1.80;;
23617;SDS011;18207;32.078;34.818;2024-03-06T06:44:33;2.92;;;2.08;;
23617;SDS011;18207;32.078;34.818;2024-03-06T06:47:12;2.33;;;2.10;;
23617;SDS011;18207;32.078;34.818;2024-03-06T06:49:42;2.42;;;1.98;;
23617;SDS011;18207;32.078;34.818;2024-03-06T06:52:12;1.88;;;1.70;;
23617;SDS011;18207;32.078;34.818;2024-03-06T06:54:43;1.80;;;1.70;;
23617;SDS011;18207;32.078;34.818;2024-03-06T06:57:12;2.40;;;1.98;;
23617;SDS011;18207;32.078;34.818;2024-03-06T06:59:44;1.92;;;1.70;;
23617;SDS011;18207;32.078;34.818;2024-03-06T07:02:14;2.05;;;1.80;;
23617;SDS011;18207;32.078;34.818;2024-03-06T07:04:44;2.15;;;1.95;;
23617;SDS011;18207;32.078;34.818;2024-03-06T07:07:17;2.17;;;1.70;;
23617;SDS011;18207;32.078;34.818;2024-03-06T07:09:47;2.95;;;2.00;;
23617;SDS011;18207;32.078;34.818;2024-03-06T07:12:17;1.80;;;1.70;;
23617;SDS011;18207;32.078;34.818;2024-03-06T07:14:48;2.20;;;1.70;;
23617;SDS011;18207;32.078;34.818;2024-03-06T07:17:18;1.50;;;1.35;;
23617;SDS011;18207;32.078;34.818;2024-03-06T07:20:00;1.80;;;1.70;;
23617;SDS011;18207;32.078;34.818;2024-03-06T07:22:32;1.42;;;1.33;;
23617;SDS011;18207;32.078;34.818;2024-03-06T07:25:02;2.33;;;1.60;;
23617;SDS011;18207;32.078;34.818;2024-03-06T07:27:32;1.60;;;1.50;;
23617;SDS011;18207;32.078;34.818;2024-03-06T07:30:05;1.92;;;1.60;;
23617;SDS011;18207;32.078;34.818;2024-03-06T07:32:40;1.90;;;1.52;;
23617;SDS011;18207;32.078;34.818;2024-03-06T07:35:10;1.17;;;1.17;;
23617;SDS011;18207;32.078;34.818;2024-03-06T07:37:40;1.92;;;1.65;;
23617;SDS011;18207;32.078;34.818;2024-03-06T07:40:11;2.60;;;1.58;;
23617;SDS011;18207;32.078;34.818;2024-03-06T07:42:41;1.58;;;1.48;;
23617;SDS011;18207;32.078;34.818;2024-03-06T07:45:13;1.23;;;1.23;;
23617;SDS011;18207;32.078;34.818;2024-03-06T07:47:43;1.40;;;1.30;;
23617;SDS011;18207;32.078;34.818;2024-03-06T07:50:15;1.27;;;1.20;;
23617;SDS011;18207;32.078;34.818;2024-03-06T07:52:47;1.85;;;1.20;;
23617;SDS011;18207;32.078;34.818;2024-03-06T07:55:25;0.90;;;0.90;;
23617;SDS011;18207;32.078;34.818;2024-03-06T07:57:56;1.42;;;1.05;;
23617;SDS011;18207;32.078;34.818;2024-03-06T08:00:27;1.80;;;0.85;;
23617;SDS011;18207;32.078;34.818;2024-03-06T08:02:58;1.38;;;1.17;;
23617;SDS011;18207;32.078;34.818;2024-03-06T08:05:29;0.68;;;0.65;;
23617;SDS011;18207;32.078;34.818;2024-03-06T08:08:01;0.70;;;0.70;;
23617;SDS011;18207;32.078;34.818;2024-03-06T08:10:46;1.20;;;0.88;;
23617;SDS011;18207;32.078;34.818;2024-03-06T08:13:22;1.30;;;0.80;;
23617;SDS011;18207;32.078;34.818;2024-03-06T08:16:24;0.88;;;0.85;;
23617;SDS011;18207;32.078;34.818;2024-03-06T08:19:08;1.00;;;0.65;;
23617;SDS011;18207;32.078;34.818;2024-03-06T08:21:41;1.35;;;0.70;;
23617;SDS011;18207;32.078;34.818;2024-03-06T08:24:29;1.40;;;0.70;;
23617;SDS011;18207;32.078;34.818;2024-03-06T08:26:59;1.65;;;0.85;;
23617;SDS011;18207;32.078;34.818;2024-03-06T08:29:32;1.63;;;0.90;;
23617;SDS011;18207;32.078;34.818;2024-03-06T08:32:06;0.93;;;0.70;;
23617;SDS011;18207;32.078;34.818;2024-03-06T08:34:37;1.60;;;0.65;;
23617;SDS011;18207;32.078;34.818;2024-03-06T08:37:09;1.23;;;0.70;;
23617;SDS011;18207;32.078;34.818;2024-03-06T08:39:39;1.13;;;0.80;;
23617;SDS011;18207;32.078;34.818;2024-03-06T08:42:10;0.95;;;0.60;;
23617;SDS011;18207;32.078;34.818;2024-03-06T08:44:46;0.77;;;0.73;;
23617;SDS011;18207;32.078;34.818;2024-03-06T08:47:17;1.35;;;0.77;;
23617;SDS011;18207;32.078;34.818;2024-03-06T08:49:48;0.68;;;0.45;;
23617;SDS011;18207;32.078;34.818;2024-03-06T08:52:18;0.80;;;0.70;;
23617;SDS011;18207;32.078;34.818;2024-03-06T08:54:49;1.33;;;0.50;;
23617;SDS011;18207;32.078;34.818;2024-03-06T08:57:19;0.93;;;0.60;;
23617;SDS011;18207;32.078;34.818;2024-03-06T08:59:49;1.38;;;0.80;;
23617;SDS011;18207;32.078;34.818;2024-03-06T09:02:23;0.80;;;0.60;;
23617;SDS011;18207;32.078;34.818;2024-03-06T09:04:54;0.95;;;0.73;;
23617;SDS011;18207;32.078;34.818;2024-03-06T09:07:25;1.08;;;0.77;;
23617;SDS011;18207;32.078;34.818;2024-03-06T09:09:55;0.80;;;0.50;;
23617;SDS011;18207;32.078;34.818;2024-03-06T09:12:25;1.05;;;0.68;;
23617;SDS011;18207;32.078;34.818;2024-03-06T09:14:56;2.05;;;0.70;;
23617;SDS011;18207;32.078;34.818;2024-03-06T09:17:33;0.75;;;0.60;;
23617;SDS011;18207;32.078;34.818;2024-03-06T09:20:09;0.60;;;0.50;;
23617;SDS011;18207;32.078;34.818;2024-03-06T09:22:41;2.13;;;0.90;;
23617;SDS011;18207;32.078;34.818;2024-03-06T09:25:12;0.93;;;0.50;;
23617;SDS011;18207;32.078;34.818;2024-03-06T09:27:45;1.25;;;0.80;;
23617;SDS011;18207;32.078;34.818;2024-03-06T09:30:15;1.27;;;0.77;;
23617;SDS011;18207;32.078;34.818;2024-03-06T09:32:49;0.68;;;0.65;;
23617;SDS011;18207;32.078;34.818;2024-03-06T09:35:19;2.10;;;0.90;;
23617;SDS011;18207;32.078;34.818;2024-03-06T09:37:49;1.08;;;0.98;;
23617;SDS011;18207;32.078;34.818;2024-03-06T09:40:20;1.63;;;0.80;;
23617;SDS011;18207;32.078;34.818;2024-03-06T09:42:52;1.63;;;0.82;;
23617;SDS011;18207;32.078;34.818;2024-03-06T09:45:22;0.80;;;0.80;;
23617;SDS011;18207;32.078;34.818;2024-03-06T09:47:56;1.05;;;0.80;;
23617;SDS011;18207;32.078;34.818;2024-03-06T09:50:27;1.23;;;0.73;;
23617;SDS011;18207;32.078;34.818;2024-03-06T09:53:05;2.45;;;0.88;;
23617;SDS011;18207;32.078;34.818;2024-03-06T09:55:39;1.58;;;0.80;;
23617;SDS011;18207;32.078;34.818;2024-03-06T09:58:14;1.23;;;0.88;;
23617;SDS011;18207;32.078;34.818;2024-03-06T10:00:48;1.35;;;1.02;;
23617;SDS011;18207;32.078;34.818;2024-03-06T10:03:23;3.50;;;1.05;;
23617;SDS011;18207;32.078;34.818;2024-03-06T10:05:54;1.80;;;1.20;;
23617;SDS011;18207;32.078;34.818;2024-03-06T10:08:27;1.20;;;0.82;;
23617;SDS011;18207;32.078;34.818;2024-03-06T10:11:00;1.30;;;1.00;;
23617;SDS011;18207;32.078;34.818;2024-03-06T10:13:33;1.33;;;0.80;;
23617;SDS011;18207;32.078;34.818;2024-03-06T10:16:06;0.88;;;0.88;;
23617;SDS011;18207;32.078;34.818;2024-03-06T10:18:42;0.80;;;0.80;;
23617;SDS011;18207;32.078;34.818;2024-03-06T10:21:12;1.08;;;1.00;;
23617;SDS011;18207;32.078;34.818;2024-03-06T10:23:44;0.90;;;0.90;;
23617;SDS011;18207;32.078;34.818;2024-03-06T10:26:16;1.23;;;1.02;;
23617;SDS011;18207;32.078;34.818;2024-03-06T10:28:47;1.17;;;0.98;;
23617;SDS011;18207;32.078;34.818;2024-03-06T10:31:26;1.13;;;0.93;;
23617;SDS011;18207;32.078;34.818;2024-03-06T10:33:58;2.45;;;0.95;;
23617;SDS011;18207;32.078;34.818;2024-03-06T10:36:30;0.90;;;0.82;;
23617;SDS011;18207;32.078;34.818;2024-03-06T10:39:01;1.00;;;0.80;;
23617;SDS011;18207;32.078;34.818;2024-03-06T10:41:32;1.77;;;0.95;;
23617;SDS011;18207;32.078;34.818;2024-03-06T10:44:04;0.90;;;0.80;;
23617;SDS011;18207;32.078;34.818;2024-03-06T10:46:43;1.58;;;0.90;;
23617;SDS011;18207;32.078;34.818;2024-03-06T10:49:17;1.13;;;0.47;;
23617;SDS011;18207;32.078;34.818;2024-03-06T10:51:48;0.70;;;0.70;;
23617;SDS011;18207;32.078;34.818;2024-03-06T10:54:21;0.80;;;0.80;;
23617;SDS011;18207;32.078;34.818;2024-03-06T10:56:52;0.77;;;0.75;;
23617;SDS011;18207;32.078;34.818;2024-03-06T10:59:24;1.27;;;0.85;;
23617;SDS011;18207;32.078;34.818;2024-03-06T11:02:04;1.88;;;1.00;;
23617;SDS011;18207;32.078;34.818;2024-03-06T11:04:37;1.10;;;1.00;;
23617;SDS011;18207;32.078;34.818;2024-03-06T11:07:10;1.00;;;0.80;;
23617;SDS011;18207;32.078;34.818;2024-03-06T11:09:41;2.13;;;1.10;;
23617;SDS011;18207;32.078;34.818;2024-03-06T11:12:11;0.90;;;0.73;;
23617;SDS011;18207;32.078;34.818;2024-03-06T11:14:41;1.13;;;0.77;;
23617;SDS011;18207;32.078;34.818;2024-03-06T11:17:12;1.92;;;0.98;;
23617;SDS011;18207;32.078;34.818;2024-03-06T11:23:07;1.15;;;0.65;;
23617;SDS011;18207;32.078;34.818;2024-03-06T11:28:38;2.38;;;0.70;;
23617;SDS011;18207;32.078;34.818;2024-03-06T11:31:17;1.98;;;0.98;;
23617;SDS011;18207;32.078;34.818;2024-03-06T11:33:53;1.95;;;0.88;;
23617;SDS011;18207;32.078;34.818;2024-03-06T11:36:28;1.90;;;0.98;;
23617;SDS011;18207;32.078;34.818;2024-03-06T11:38:58;2.72;;;0.90;;
23617;SDS011;18207;32.078;34.818;2024-03-06T11:41:46;1.48;;;0.82;;
23617;SDS011;18207;32.078;34.818;2024-03-06T11:44:17;2.40;;;1.05;;
23617;SDS011;18207;32.078;34.818;2024-03-06T11:46:57;2.50;;;1.13;;
23617;SDS011;18207;32.078;34.818;2024-03-06T11:49:28;1.23;;;0.60;;
23617;SDS011;18207;32.078;34.818;2024-03-06T11:52:03;1.83;;;1.00;;
23617;SDS011;18207;32.078;34.818;2024-03-06T11:54:35;0.73;;;0.57;;
23617;SDS011;18207;32.078;34.818;2024-03-06T11:57:06;1.38;;;1.10;;
23617;SDS011;18207;32.078;34.818;2024-03-06T12:00:02;2.22;;;0.70;;
23617;SDS011;18207;32.078;34.818;2024-03-06T12:02:34;2.13;;;1.08;;
23617;SDS011;18207;32.078;34.818;2024-03-06T12:05:06;1.83;;;0.82;;
23617;SDS011;18207;32.078;34.818;2024-03-06T12:07:46;1.27;;;0.65;;
23617;SDS011;18207;32.078;34.818;2024-03-06T12:10:22;2.20;;;0.98;;
23617;SDS011;18207;32.078;34.818;2024-03-06T12:13:00;2.88;;;1.05;;
23617;SDS011;18207;32.078;34.818;2024-03-06T12:15:30;2.58;;;1.05;;
23617;SDS011;18207;32.078;34.818;2024-03-06T12:18:00;2.47;;;1.10;;
23617;SDS011;18207;32.078;34.818;2024-03-06T12:20:34;1.88;;;0.77;;
23617;SDS011;18207;32.078;34.818;2024-03-06T12:23:05;2.83;;;1.05;;
23617;SDS011;18207;32.078;34.818;2024-03-06T12:25:36;1.52;;;0.80;;
23617;SDS011;18207;32.078;34.818;2024-03-06T12:28:09;2.38;;;0.70;;
23617;SDS011;18207;32.078;34.818;2024-03-06T12:30:44;1.05;;;0.60;;
23617;SDS011;18207;32.078;34.818;2024-03-06T12:33:34;0.73;;;0.47;;
23617;SDS011;18207;32.078;34.818;2024-03-06T12:36:05;0.57;;;0.40;;
23617;SDS011;18207;32.078;34.818;2024-03-06T12:38:43;0.35;;;0.35;;
23617;SDS011;18207;32.078;34.818;2024-03-06T12:41:13;1.65;;;0.40;;
23617;SDS011;18207;32.078;34.818;2024-03-06T12:43:43;0.35;;;0.30;;
23617;SDS011;18207;32.078;34.818;2024-03-06T12:46:19;1.35;;;0.77;;
23617;SDS011;18207;32.078;34.818;2024-03-06T12:48:50;1.83;;;1.45;;
23617;SDS011;18207;32.078;34.818;2024-03-06T12:51:22;3.58;;;2.30;;
23617;SDS011;18207;32.078;34.818;2024-03-06T12:53:55;4.88;;;2.38;;
23617;SDS011;18207;32.078;34.818;2024-03-06T12:56:28;3.17;;;2.65;;
23617;SDS011;18207;32.078;34.818;2024-03-06T12:58:58;3.58;;;2.65;;
23617;SDS011;18207;32.078;34.818;2024-03-06T13:01:28;2.28;;;1.80;;
23617;SDS011;18207;32.078;34.818;2024-03-06T13:04:05;1.27;;;1.20;;
23617;SDS011;18207;32.078;34.818;2024-03-06T13:06:48;2.00;;;1.35;;
23617;SDS011;18207;32.078;34.818;2024-03-06T13:09:20;3.00;;;1.00;;
23617;SDS011;18207;32.078;34.818;2024-03-06T13:11:54;0.80;;;0.80;;
23617;SDS011;18207;32.078;34.818;2024-03-06T13:14:37;0.63;;;0.60;;
23617;SDS011;18207;32.078;34.818;2024-03-06T13:17:09;0.90;;;0.80;;
23617;SDS011;18207;32.078;34.818;2024-03-06T13:19:42;1.05;;;0.70;;
23617;SDS011;18207;32.078;34.818;2024-03-06T13:22:12;1.20;;;0.88;;
23617;SDS011;18207;32.078;34.818;2024-03-06T13:24:52;0.90;;;0.80;;
23617;SDS011;18207;32.078;34.818;2024-03-06T13:27:22;1.10;;;0.70;;
23617;SDS011;18207;32.078;34.818;2024-03-06T13:29:52;0.95;;;0.70;;
23617;SDS011;18207;32.078;34.818;2024-03-06T13:32:21;0.80;;;0.50;;
23617;SDS011;18207;32.078;34.818;2024-03-06T13:34:52;1.00;;;0.60;;
23617;SDS011;18207;32.078;34.818;2024-03-06T13:37:25;1.48;;;0.57;;
23617;SDS011;18207;32.078;34.818;2024-03-06T13:39:57;0.73;;;0.52;;
23617;SDS011;18207;32.078;34.818;2024-03-06T13:42:30;0.73;;;0.50;;
23617;SDS011;18207;32.078;34.818;2024-03-06T13:45:01;0.60;;;0.43;;
23617;SDS011;18207;32.078;34.818;2024-03-06T13:47:31;0.60;;;0.40;;
23617;SDS011;18207;32.078;34.818;2024-03-06T13:50:04;0.60;;;0.45;;
23617;SDS011;18207;32.078;34.818;2024-03-06T13:52:37;0.70;;;0.60;;
23617;SDS011;18207;32.078;34.818;2024-03-06T13:55:09;0.70;;;0.40;;
23617;SDS011;18207;32.078;34.818;2024-03-06T13:57:40;0.28;;;0.28;;
23617;SDS011;18207;32.078;34.818;2024-03-06T14:00:11;0.47;;;0.32;;
23617;SDS011;18207;32.078;34.818;2024-03-06T14:02:50;0.98;;;0.47;;
23617;SDS011;18207;32.078;34.818;2024-03-06T14:05:38;0.75;;;0.43;;
23617;SDS011;18207;32.078;34.818;2024-03-06T14:08:22;0.55;;;0.35;;
23617;SDS011;18207;32.078;34.818;2024-03-06T14:10:59;0.57;;;0.50;;
23617;SDS011;18207;32.078;34.818;2024-03-06T14:13:38;0.47;;;0.38;;
23617;SDS011;18207;32.078;34.818;2024-03-06T14:16:10;1.80;;;0.50;;
23617;SDS011;18207;32.078;34.818;2024-03-06T14:18:44;0.95;;;0.60;;
23617;SDS011;18207;32.078;34.818;2024-03-06T14:21:17;0.95;;;0.47;;
23617;SDS011;18207;32.078;34.818;2024-03-06T14:23:47;1.17;;;0.60;;
23617;SDS011;18207;32.078;34.818;2024-03-06T14:26:22;0.45;;;0.40;;
23617;SDS011;18207;32.078;34.818;2024-03-06T14:28:52;1.33;;;0.55;;
23617;SDS011;18207;32.078;34.818;2024-03-06T14:31:22;0.70;;;0.43;;
23617;SDS011;18207;32.078;34.818;2024-03-06T14:33:53;1.25;;;0.60;;
23617;SDS011;18207;32.078;34.818;2024-03-06T14:36:45;1.58;;;0.50;;
23617;SDS011;18207;32.078;34.818;2024-03-06T14:39:23;0.95;;;0.45;;
23617;SDS011;18207;32.078;34.818;2024-03-06T14:41:58;0.43;;;0.30;;
23617;SDS011;18207;32.078;34.818;2024-03-06T14:44:32;0.75;;;0.45;;
23617;SDS011;18207;32.078;34.818;2024-03-06T14:47:03;0.70;;;0.50;;
23617;SDS011;18207;32.078;34.818;2024-03-06T14:49:34;1.25;;;0.55;;
23617;SDS011;18207;32.078;34.818;2024-03-06T14:52:04;1.75;;;0.55;;
23617;SDS011;18207;32.078;34.818;2024-03-06T14:54:36;1.73;;;0.65;;
23617;SDS011;18207;32.078;34.818;2024-03-06T14:57:10;0.63;;;0.50;;
23617;SDS011;18207;32.078;34.818;2024-03-06T14:59:41;1.30;;;0.52;;
23617;SDS011;18207;32.078;34.818;2024-03-06T15:02:11;0.40;;;0.30;;
23617;SDS011;18207;32.078;34.818;2024-03-06T15:04:41;1.05;;;0.52;;
23617;SDS011;18207;32.078;34.818;2024-03-06T15:07:12;1.27;;;0.77;;
23617;SDS011;18207;32.078;34.818;2024-03-06T15:09:43;1.23;;;0.65;;
23617;SDS011;18207;32.078;34.818;2024-03-06T15:12:22;0.70;;;0.40;;
23617;SDS011;18207;32.078;34.818;2024-03-06T15:14:56;1.20;;;0.60;;
23617;SDS011;18207;32.078;34.818;2024-03-06T15:17:26;1.10;;;0.50;;